sensor_id;sensor_type;location;lat;lon;timestamp;P1;durP1;ratioP1;P2;durP2;ratioP2
46753;SDS011;32500;50.620;3.400;2023-11-21T00:00:33;121.78;;;56.88;;
46753;SDS011;32500;50.620;3.400;2023-11-21T00:02:59;123.43;;;57.28;;
46753;SDS011;32500;50.620;3.400;2023-11-21T00:05:24;121.32;;;57.13;;
46753;SDS011;32500;50.620;3.400;2023-11-21T00:07:50;123.07;;;57.45;;
46753;SDS011;32500;50.620;3.400;2023-11-21T00:10:16;121.78;;;56.95;;
46753;SDS011;32500;50.620;3.400;2023-11-21T00:12:42;123.07;;;57.40;;
46753;SDS011;32500;50.620;3.400;2023-11-21T00:15:08;123.85;;;56.97;;
46753;SDS011;32500;50.620;3.400;2023-11-21T00:17:36;120.07;;;56.50;;
46753;SDS011;32500;50.620;3.400;2023-11-21T00:20:05;120.03;;;56.63;;
46753;SDS011;32500;50.620;3.400;2023-11-21T00:22:33;123.75;;;57.28;;
46753;SDS011;32500;50.620;3.400;2023-11-21T00:24:59;121.95;;;56.85;;
46753;SDS011;32500;50.620;3.400;2023-11-21T00:27:24;121.68;;;56.83;;
46753;SDS011;32500;50.620;3.400;2023-11-21T00:29:50;120.07;;;56.35;;
46753;SDS011;32500;50.620;3.400;2023-11-21T00:32:16;119.85;;;55.95;;
46753;SDS011;32500;50.620;3.400;2023-11-21T00:34:41;120.90;;;56.78;;
46753;SDS011;32500;50.620;3.400;2023-11-21T00:37:07;120.82;;;56.78;;
46753;SDS011;32500;50.620;3.400;2023-11-21T00:39:33;121.43;;;56.63;;
46753;SDS011;32500;50.620;3.400;2023-11-21T00:42:00;121.15;;;57.00;;
46753;SDS011;32500;50.620;3.400;2023-11-21T00:44:25;121.32;;;57.13;;
46753;SDS011;32500;50.620;3.400;2023-11-21T00:46:51;121.38;;;56.58;;
46753;SDS011;32500;50.620;3.400;2023-11-21T00:49:16;123.25;;;56.63;;
46753;SDS011;32500;50.620;3.400;2023-11-21T00:51:42;119.97;;;56.60;;
46753;SDS011;32500;50.620;3.400;2023-11-21T00:54:08;120.45;;;56.25;;
46753;SDS011;32500;50.620;3.400;2023-11-21T00:56:33;121.97;;;56.78;;
46753;SDS011;32500;50.620;3.400;2023-11-21T00:58:59;119.20;;;56.13;;
46753;SDS011;32500;50.620;3.400;2023-11-21T01:01:24;120.63;;;56.55;;
46753;SDS011;32500;50.620;3.400;2023-11-21T01:03:50;121.20;;;56.03;;
46753;SDS011;32500;50.620;3.400;2023-11-21T01:06:16;121.03;;;57.25;;
46753;SDS011;32500;50.620;3.400;2023-11-21T01:08:43;121.40;;;56.65;;
46753;SDS011;32500;50.620;3.400;2023-11-21T01:11:09;121.10;;;56.78;;
46753;SDS011;32500;50.620;3.400;2023-11-21T01:13:37;120.05;;;56.47;;
46753;SDS011;32500;50.620;3.400;2023-11-21T01:16:04;120.30;;;56.38;;
46753;SDS011;32500;50.620;3.400;2023-11-21T01:18:31;119.65;;;56.20;;
46753;SDS011;32500;50.620;3.400;2023-11-21T01:20:57;121.18;;;56.42;;
46753;SDS011;32500;50.620;3.400;2023-11-21T01:23:22;121.03;;;56.38;;
46753;SDS011;32500;50.620;3.400;2023-11-21T01:25:48;119.28;;;55.88;;
46753;SDS011;32500;50.620;3.400;2023-11-21T01:28:13;119.90;;;55.55;;
46753;SDS011;32500;50.620;3.400;2023-11-21T01:30:39;119.38;;;55.55;;
46753;SDS011;32500;50.620;3.400;2023-11-21T01:33:05;119.15;;;55.78;;
46753;SDS011;32500;50.620;3.400;2023-11-21T01:35:31;120.68;;;55.90;;
46753;SDS011;32500;50.620;3.400;2023-11-21T01:37:56;122.18;;;56.33;;
46753;SDS011;32500;50.620;3.400;2023-11-21T01:40:22;118.70;;;55.70;;
46753;SDS011;32500;50.620;3.400;2023-11-21T01:42:47;120.80;;;56.17;;
46753;SDS011;32500;50.620;3.400;2023-11-21T01:45:13;120.25;;;55.65;;
46753;SDS011;32500;50.620;3.400;2023-11-21T01:47:39;118.05;;;55.13;;
46753;SDS011;32500;50.620;3.400;2023-11-21T01:50:07;121.60;;;56.17;;
46753;SDS011;32500;50.620;3.400;2023-11-21T01:52:36;119.18;;;55.83;;
46753;SDS011;32500;50.620;3.400;2023-11-21T01:55:02;120.32;;;55.65;;
46753;SDS011;32500;50.620;3.400;2023-11-21T01:57:29;120.15;;;55.80;;
46753;SDS011;32500;50.620;3.400;2023-11-21T01:59:55;119.72;;;55.53;;
46753;SDS011;32500;50.620;3.400;2023-11-21T02:02:23;121.63;;;56.22;;
46753;SDS011;32500;50.620;3.400;2023-11-21T02:04:49;119.50;;;55.53;;
46753;SDS011;32500;50.620;3.400;2023-11-21T02:07:14;119.07;;;55.47;;
46753;SDS011;32500;50.620;3.400;2023-11-21T02:09:40;120.15;;;55.63;;
46753;SDS011;32500;50.620;3.400;2023-11-21T02:12:07;118.93;;;55.35;;
46753;SDS011;32500;50.620;3.400;2023-11-21T02:14:35;120.75;;;55.40;;
46753;SDS011;32500;50.620;3.400;2023-11-21T02:17:01;119.53;;;56.13;;
46753;SDS011;32500;50.620;3.400;2023-11-21T02:19:28;118.72;;;55.65;;
46753;SDS011;32500;50.620;3.400;2023-11-21T02:21:56;120.18;;;55.95;;
46753;SDS011;32500;50.620;3.400;2023-11-21T02:24:31;118.07;;;55.30;;
46753;SDS011;32500;50.620;3.400;2023-11-21T02:26:57;119.70;;;55.95;;
46753;SDS011;32500;50.620;3.400;2023-11-21T02:29:22;121.78;;;55.83;;
46753;SDS011;32500;50.620;3.400;2023-11-21T02:31:52;118.70;;;55.67;;
46753;SDS011;32500;50.620;3.400;2023-11-21T02:34:20;119.75;;;55.67;;
46753;SDS011;32500;50.620;3.400;2023-11-21T02:36:46;118.63;;;55.47;;
46753;SDS011;32500;50.620;3.400;2023-11-21T02:39:16;119.30;;;55.83;;
46753;SDS011;32500;50.620;3.400;2023-11-21T02:41:42;119.53;;;55.85;;
46753;SDS011;32500;50.620;3.400;2023-11-21T02:44:08;119.90;;;55.65;;
46753;SDS011;32500;50.620;3.400;2023-11-21T02:46:34;118.78;;;55.53;;
46753;SDS011;32500;50.620;3.400;2023-11-21T02:49:04;119.43;;;55.47;;
46753;SDS011;32500;50.620;3.400;2023-11-21T02:51:31;118.95;;;55.88;;
46753;SDS011;32500;50.620;3.400;2023-11-21T02:53:57;118.90;;;55.85;;
46753;SDS011;32500;50.620;3.400;2023-11-21T02:56:27;118.18;;;55.50;;
46753;SDS011;32500;50.620;3.400;2023-11-21T02:58:56;120.75;;;55.92;;
46753;SDS011;32500;50.620;3.400;2023-11-21T03:01:22;119.45;;;55.85;;
46753;SDS011;32500;50.620;3.400;2023-11-21T03:03:51;119.80;;;56.75;;
46753;SDS011;32500;50.620;3.400;2023-11-21T03:06:20;117.93;;;55.53;;
46753;SDS011;32500;50.620;3.400;2023-11-21T03:08:46;121.32;;;55.85;;
46753;SDS011;32500;50.620;3.400;2023-11-21T03:11:12;118.95;;;56.30;;
46753;SDS011;32500;50.620;3.400;2023-11-21T03:13:41;119.47;;;55.83;;
46753;SDS011;32500;50.620;3.400;2023-11-21T03:16:10;119.32;;;55.72;;
46753;SDS011;32500;50.620;3.400;2023-11-21T03:18:39;120.30;;;55.67;;
46753;SDS011;32500;50.620;3.400;2023-11-21T03:21:05;118.40;;;55.20;;
46753;SDS011;32500;50.620;3.400;2023-11-21T03:23:33;119.80;;;56.03;;
46753;SDS011;32500;50.620;3.400;2023-11-21T03:25:59;118.65;;;55.63;;
46753;SDS011;32500;50.620;3.400;2023-11-21T03:28:25;119.00;;;55.95;;
46753;SDS011;32500;50.620;3.400;2023-11-21T03:30:52;119.95;;;55.78;;
46753;SDS011;32500;50.620;3.400;2023-11-21T03:33:18;119.18;;;55.63;;
46753;SDS011;32500;50.620;3.400;2023-11-21T03:35:44;120.50;;;55.63;;
46753;SDS011;32500;50.620;3.400;2023-11-21T03:38:09;118.03;;;55.08;;
46753;SDS011;32500;50.620;3.400;2023-11-21T03:40:35;119.32;;;55.42;;
46753;SDS011;32500;50.620;3.400;2023-11-21T03:43:01;119.63;;;55.20;;
46753;SDS011;32500;50.620;3.400;2023-11-21T03:45:26;117.28;;;55.45;;
46753;SDS011;32500;50.620;3.400;2023-11-21T03:47:52;118.35;;;54.80;;
46753;SDS011;32500;50.620;3.400;2023-11-21T03:50:17;117.63;;;55.38;;
46753;SDS011;32500;50.620;3.400;2023-11-21T03:52:43;116.82;;;54.95;;
46753;SDS011;32500;50.620;3.400;2023-11-21T03:55:09;119.50;;;55.33;;
46753;SDS011;32500;50.620;3.400;2023-11-21T03:57:35;118.93;;;55.42;;
46753;SDS011;32500;50.620;3.400;2023-11-21T04:00:01;119.00;;;55.70;;
46753;SDS011;32500;50.620;3.400;2023-11-21T04:02:29;118.25;;;55.15;;
46753;SDS011;32500;50.620;3.400;2023-11-21T04:04:56;118.03;;;55.40;;
46753;SDS011;32500;50.620;3.400;2023-11-21T04:07:22;120.95;;;55.85;;
46753;SDS011;32500;50.620;3.400;2023-11-21T04:09:48;117.97;;;54.97;;
46753;SDS011;32500;50.620;3.400;2023-11-21T04:12:13;118.30;;;55.10;;
46753;SDS011;32500;50.620;3.400;2023-11-21T04:14:39;118.20;;;55.42;;
46753;SDS011;32500;50.620;3.400;2023-11-21T04:17:04;118.45;;;55.63;;
46753;SDS011;32500;50.620;3.400;2023-11-21T04:19:30;118.93;;;56.95;;
46753;SDS011;32500;50.620;3.400;2023-11-21T04:21:56;119.72;;;55.90;;
46753;SDS011;32500;50.620;3.400;2023-11-21T04:24:21;118.85;;;55.78;;
46753;SDS011;32500;50.620;3.400;2023-11-21T04:26:47;118.88;;;55.97;;
46753;SDS011;32500;50.620;3.400;2023-11-21T04:29:12;119.47;;;56.08;;
46753;SDS011;32500;50.620;3.400;2023-11-21T04:31:38;118.68;;;55.72;;
46753;SDS011;32500;50.620;3.400;2023-11-21T04:34:04;119.70;;;55.95;;
46753;SDS011;32500;50.620;3.400;2023-11-21T04:36:30;119.18;;;56.05;;
46753;SDS011;32500;50.620;3.400;2023-11-21T04:38:56;118.57;;;55.85;;
46753;SDS011;32500;50.620;3.400;2023-11-21T04:41:21;117.43;;;55.53;;
46753;SDS011;32500;50.620;3.400;2023-11-21T04:43:47;119.28;;;55.75;;
46753;SDS011;32500;50.620;3.400;2023-11-21T04:46:14;118.63;;;56.10;;
46753;SDS011;32500;50.620;3.400;2023-11-21T04:48:39;119.97;;;55.65;;
46753;SDS011;32500;50.620;3.400;2023-11-21T04:51:05;118.60;;;55.47;;
46753;SDS011;32500;50.620;3.400;2023-11-21T04:53:31;118.68;;;56.20;;
46753;SDS011;32500;50.620;3.400;2023-11-21T04:55:57;117.97;;;55.83;;
46753;SDS011;32500;50.620;3.400;2023-11-21T04:58:23;118.90;;;55.88;;
46753;SDS011;32500;50.620;3.400;2023-11-21T05:00:49;118.80;;;56.13;;
46753;SDS011;32500;50.620;3.400;2023-11-21T05:03:15;118.25;;;56.17;;
46753;SDS011;32500;50.620;3.400;2023-11-21T05:05:40;118.32;;;55.75;;
46753;SDS011;32500;50.620;3.400;2023-11-21T05:08:06;118.65;;;55.22;;
46753;SDS011;32500;50.620;3.400;2023-11-21T05:10:31;118.10;;;54.95;;
46753;SDS011;32500;50.620;3.400;2023-11-21T05:12:57;118.20;;;55.08;;
46753;SDS011;32500;50.620;3.400;2023-11-21T05:15:23;118.80;;;55.10;;
46753;SDS011;32500;50.620;3.400;2023-11-21T05:17:49;121.13;;;56.63;;
46753;SDS011;32500;50.620;3.400;2023-11-21T05:20:17;119.18;;;56.08;;
46753;SDS011;32500;50.620;3.400;2023-11-21T05:22:45;120.63;;;55.22;;
46753;SDS011;32500;50.620;3.400;2023-11-21T05:25:14;120.45;;;56.38;;
46753;SDS011;32500;50.620;3.400;2023-11-21T05:27:40;117.88;;;55.45;;
46753;SDS011;32500;50.620;3.400;2023-11-21T05:30:06;121.00;;;55.63;;
46753;SDS011;32500;50.620;3.400;2023-11-21T05:32:34;119.45;;;55.45;;
46753;SDS011;32500;50.620;3.400;2023-11-21T05:35:00;120.63;;;55.13;;
46753;SDS011;32500;50.620;3.400;2023-11-21T05:37:26;117.97;;;55.25;;
46753;SDS011;32500;50.620;3.400;2023-11-21T05:39:52;120.78;;;55.45;;
46753;SDS011;32500;50.620;3.400;2023-11-21T05:42:21;121.68;;;55.55;;
46753;SDS011;32500;50.620;3.400;2023-11-21T05:44:47;118.90;;;55.10;;
46753;SDS011;32500;50.620;3.400;2023-11-21T05:47:13;124.10;;;56.28;;
46753;SDS011;32500;50.620;3.400;2023-11-21T05:49:38;124.10;;;56.30;;
46753;SDS011;32500;50.620;3.400;2023-11-21T05:52:04;122.75;;;55.88;;
46753;SDS011;32500;50.620;3.400;2023-11-21T05:54:31;122.15;;;56.38;;
46753;SDS011;32500;50.620;3.400;2023-11-21T05:56:57;121.93;;;56.33;;
46753;SDS011;32500;50.620;3.400;2023-11-21T05:59:22;122.75;;;56.28;;
46753;SDS011;32500;50.620;3.400;2023-11-21T06:01:49;125.22;;;56.25;;
46753;SDS011;32500;50.620;3.400;2023-11-21T06:04:14;118.72;;;55.92;;
46753;SDS011;32500;50.620;3.400;2023-11-21T06:06:40;123.30;;;56.67;;
46753;SDS011;32500;50.620;3.400;2023-11-21T06:09:06;120.20;;;55.80;;
46753;SDS011;32500;50.620;3.400;2023-11-21T06:11:34;126.60;;;56.92;;
46753;SDS011;32500;50.620;3.400;2023-11-21T06:14:00;119.15;;;56.20;;
46753;SDS011;32500;50.620;3.400;2023-11-21T06:16:25;121.47;;;56.08;;
46753;SDS011;32500;50.620;3.400;2023-11-21T06:18:52;118.53;;;55.05;;
46753;SDS011;32500;50.620;3.400;2023-11-21T06:21:17;122.20;;;55.17;;
46753;SDS011;32500;50.620;3.400;2023-11-21T06:23:43;122.30;;;56.20;;
46753;SDS011;32500;50.620;3.400;2023-11-21T06:26:09;120.20;;;56.13;;
46753;SDS011;32500;50.620;3.400;2023-11-21T06:28:35;125.38;;;56.70;;
46753;SDS011;32500;50.620;3.400;2023-11-21T06:31:03;124.35;;;55.35;;
46753;SDS011;32500;50.620;3.400;2023-11-21T06:33:32;119.68;;;55.40;;
46753;SDS011;32500;50.620;3.400;2023-11-21T06:35:58;121.80;;;56.60;;
46753;SDS011;32500;50.620;3.400;2023-11-21T06:38:27;124.45;;;56.40;;
46753;SDS011;32500;50.620;3.400;2023-11-21T06:40:55;124.10;;;56.28;;
46753;SDS011;32500;50.620;3.400;2023-11-21T06:43:22;120.78;;;56.28;;
46753;SDS011;32500;50.620;3.400;2023-11-21T06:45:47;120.68;;;56.03;;
46753;SDS011;32500;50.620;3.400;2023-11-21T06:48:13;120.43;;;55.45;;
46753;SDS011;32500;50.620;3.400;2023-11-21T06:50:39;125.15;;;55.50;;
46753;SDS011;32500;50.620;3.400;2023-11-21T06:53:04;122.55;;;54.95;;
46753;SDS011;32500;50.620;3.400;2023-11-21T06:55:32;120.72;;;55.35;;
46753;SDS011;32500;50.620;3.400;2023-11-21T06:57:58;120.50;;;55.00;;
46753;SDS011;32500;50.620;3.400;2023-11-21T07:00:25;120.47;;;54.70;;
46753;SDS011;32500;50.620;3.400;2023-11-21T07:02:53;121.80;;;55.47;;
46753;SDS011;32500;50.620;3.400;2023-11-21T07:05:20;126.75;;;55.80;;
46753;SDS011;32500;50.620;3.400;2023-11-21T07:07:46;119.63;;;55.40;;
46753;SDS011;32500;50.620;3.400;2023-11-21T07:10:13;125.43;;;56.40;;
46753;SDS011;32500;50.620;3.400;2023-11-21T07:12:39;124.75;;;56.40;;
46753;SDS011;32500;50.620;3.400;2023-11-21T07:15:05;122.05;;;56.03;;
46753;SDS011;32500;50.620;3.400;2023-11-21T07:17:34;124.20;;;55.75;;
46753;SDS011;32500;50.620;3.400;2023-11-21T07:20:02;124.55;;;55.72;;
46753;SDS011;32500;50.620;3.400;2023-11-21T07:22:29;121.68;;;55.15;;
46753;SDS011;32500;50.620;3.400;2023-11-21T07:24:55;121.82;;;56.17;;
46753;SDS011;32500;50.620;3.400;2023-11-21T07:27:23;124.50;;;55.78;;
46753;SDS011;32500;50.620;3.400;2023-11-21T07:29:49;127.00;;;55.97;;
46753;SDS011;32500;50.620;3.400;2023-11-21T07:32:15;118.35;;;55.20;;
46753;SDS011;32500;50.620;3.400;2023-11-21T07:34:41;121.93;;;55.75;;
46753;SDS011;32500;50.620;3.400;2023-11-21T07:37:07;119.30;;;55.13;;
46753;SDS011;32500;50.620;3.400;2023-11-21T07:39:34;119.78;;;55.75;;
46753;SDS011;32500;50.620;3.400;2023-11-21T07:42:01;119.30;;;55.70;;
46753;SDS011;32500;50.620;3.400;2023-11-21T07:44:27;120.25;;;55.53;;
46753;SDS011;32500;50.620;3.400;2023-11-21T07:46:54;119.00;;;55.33;;
46753;SDS011;32500;50.620;3.400;2023-11-21T07:49:22;118.82;;;55.45;;
46753;SDS011;32500;50.620;3.400;2023-11-21T07:51:48;120.13;;;55.40;;
46753;SDS011;32500;50.620;3.400;2023-11-21T07:54:14;119.88;;;55.80;;
46753;SDS011;32500;50.620;3.400;2023-11-21T07:56:41;121.13;;;56.55;;
46753;SDS011;32500;50.620;3.400;2023-11-21T07:59:07;120.70;;;55.17;;
46753;SDS011;32500;50.620;3.400;2023-11-21T08:04:00;120.40;;;57.35;;
46753;SDS011;32500;50.620;3.400;2023-11-21T08:06:28;122.32;;;55.85;;
46753;SDS011;32500;50.620;3.400;2023-11-21T08:08:58;117.85;;;55.47;;
46753;SDS011;32500;50.620;3.400;2023-11-21T08:11:24;119.65;;;55.33;;
46753;SDS011;32500;50.620;3.400;2023-11-21T08:13:51;119.80;;;55.45;;
46753;SDS011;32500;50.620;3.400;2023-11-21T08:16:16;118.97;;;55.38;;
46753;SDS011;32500;50.620;3.400;2023-11-21T08:18:42;120.72;;;56.30;;
46753;SDS011;32500;50.620;3.400;2023-11-21T08:21:08;117.10;;;54.97;;
46753;SDS011;32500;50.620;3.400;2023-11-21T08:23:33;118.53;;;56.35;;
46753;SDS011;32500;50.620;3.400;2023-11-21T08:26:00;118.70;;;55.78;;
46753;SDS011;32500;50.620;3.400;2023-11-21T08:28:28;122.03;;;55.38;;
46753;SDS011;32500;50.620;3.400;2023-11-21T08:30:53;121.00;;;55.55;;
46753;SDS011;32500;50.620;3.400;2023-11-21T08:33:19;120.88;;;55.78;;
46753;SDS011;32500;50.620;3.400;2023-11-21T08:35:45;128.65;;;56.30;;
46753;SDS011;32500;50.620;3.400;2023-11-21T08:38:11;118.22;;;55.40;;
46753;SDS011;32500;50.620;3.400;2023-11-21T08:40:37;121.78;;;55.65;;
46753;SDS011;32500;50.620;3.400;2023-11-21T08:43:03;123.00;;;55.45;;
46753;SDS011;32500;50.620;3.400;2023-11-21T08:45:29;119.22;;;55.72;;
46753;SDS011;32500;50.620;3.400;2023-11-21T08:47:56;121.30;;;55.70;;
46753;SDS011;32500;50.620;3.400;2023-11-21T08:50:21;122.18;;;56.38;;
46753;SDS011;32500;50.620;3.400;2023-11-21T08:52:47;122.72;;;56.03;;
46753;SDS011;32500;50.620;3.400;2023-11-21T08:55:13;121.43;;;55.55;;
46753;SDS011;32500;50.620;3.400;2023-11-21T08:57:39;120.35;;;55.90;;
46753;SDS011;32500;50.620;3.400;2023-11-21T09:00:06;120.28;;;55.75;;
46753;SDS011;32500;50.620;3.400;2023-11-21T09:02:36;120.40;;;55.10;;
46753;SDS011;32500;50.620;3.400;2023-11-21T09:05:02;121.80;;;55.90;;
46753;SDS011;32500;50.620;3.400;2023-11-21T09:07:29;119.65;;;55.90;;
46753;SDS011;32500;50.620;3.400;2023-11-21T09:09:55;123.97;;;55.45;;
46753;SDS011;32500;50.620;3.400;2023-11-21T09:12:20;118.60;;;55.40;;
46753;SDS011;32500;50.620;3.400;2023-11-21T09:14:46;121.82;;;55.75;;
46753;SDS011;32500;50.620;3.400;2023-11-21T09:17:12;121.10;;;55.78;;
46753;SDS011;32500;50.620;3.400;2023-11-21T09:19:39;120.60;;;56.00;;
46753;SDS011;32500;50.620;3.400;2023-11-21T09:22:05;118.05;;;55.45;;
46753;SDS011;32500;50.620;3.400;2023-11-21T09:24:31;118.32;;;55.45;;
46753;SDS011;32500;50.620;3.400;2023-11-21T09:26:58;119.50;;;55.85;;
46753;SDS011;32500;50.620;3.400;2023-11-21T09:29:25;121.60;;;55.80;;
46753;SDS011;32500;50.620;3.400;2023-11-21T09:31:54;118.78;;;55.60;;
46753;SDS011;32500;50.620;3.400;2023-11-21T09:34:24;119.07;;;55.90;;
46753;SDS011;32500;50.620;3.400;2023-11-21T09:36:50;119.78;;;56.08;;
46753;SDS011;32500;50.620;3.400;2023-11-21T09:39:16;118.93;;;56.08;;
46753;SDS011;32500;50.620;3.400;2023-11-21T09:44:12;119.32;;;55.35;;
46753;SDS011;32500;50.620;3.400;2023-11-21T09:46:40;119.40;;;55.28;;
46753;SDS011;32500;50.620;3.400;2023-11-21T09:49:09;120.95;;;56.08;;
46753;SDS011;32500;50.620;3.400;2023-11-21T09:51:42;119.03;;;56.35;;
46753;SDS011;32500;50.620;3.400;2023-11-21T09:54:09;120.78;;;56.35;;
46753;SDS011;32500;50.620;3.400;2023-11-21T09:56:37;117.63;;;55.85;;
46753;SDS011;32500;50.620;3.400;2023-11-21T09:59:03;122.45;;;55.97;;
46753;SDS011;32500;50.620;3.400;2023-11-21T10:01:32;118.47;;;55.90;;
46753;SDS011;32500;50.620;3.400;2023-11-21T10:04:00;117.63;;;55.13;;
46753;SDS011;32500;50.620;3.400;2023-11-21T10:06:26;120.30;;;55.65;;
46753;SDS011;32500;50.620;3.400;2023-11-21T10:08:54;122.13;;;56.50;;
46753;SDS011;32500;50.620;3.400;2023-11-21T10:11:23;117.88;;;55.63;;
46753;SDS011;32500;50.620;3.400;2023-11-21T10:13:52;118.50;;;56.15;;
46753;SDS011;32500;50.620;3.400;2023-11-21T10:16:19;118.63;;;55.53;;
46753;SDS011;32500;50.620;3.400;2023-11-21T10:18:49;118.32;;;56.28;;
46753;SDS011;32500;50.620;3.400;2023-11-21T10:23:44;118.30;;;56.08;;
46753;SDS011;32500;50.620;3.400;2023-11-21T10:26:11;120.07;;;55.83;;
46753;SDS011;32500;50.620;3.400;2023-11-21T10:28:54;119.55;;;55.90;;
46753;SDS011;32500;50.620;3.400;2023-11-21T10:31:24;122.20;;;55.95;;
46753;SDS011;32500;50.620;3.400;2023-11-21T10:33:53;119.63;;;55.92;;
46753;SDS011;32500;50.620;3.400;2023-11-21T10:36:29;117.05;;;55.47;;
46753;SDS011;32500;50.620;3.400;2023-11-21T10:38:54;118.20;;;55.92;;
46753;SDS011;32500;50.620;3.400;2023-11-21T10:41:22;120.88;;;56.00;;
46753;SDS011;32500;50.620;3.400;2023-11-21T10:43:47;118.47;;;56.15;;
46753;SDS011;32500;50.620;3.400;2023-11-21T10:46:14;119.03;;;55.67;;
46753;SDS011;32500;50.620;3.400;2023-11-21T10:48:41;117.93;;;55.65;;
46753;SDS011;32500;50.620;3.400;2023-11-21T10:51:07;118.07;;;55.78;;
46753;SDS011;32500;50.620;3.400;2023-11-21T10:53:34;117.97;;;55.45;;
46753;SDS011;32500;50.620;3.400;2023-11-21T10:56:06;118.72;;;55.90;;
46753;SDS011;32500;50.620;3.400;2023-11-21T10:58:33;120.22;;;55.72;;
46753;SDS011;32500;50.620;3.400;2023-11-21T11:01:00;118.53;;;55.88;;
46753;SDS011;32500;50.620;3.400;2023-11-21T11:03:30;117.65;;;55.72;;
46753;SDS011;32500;50.620;3.400;2023-11-21T11:05:58;118.32;;;55.78;;
46753;SDS011;32500;50.620;3.400;2023-11-21T11:08:24;118.07;;;55.88;;
46753;SDS011;32500;50.620;3.400;2023-11-21T11:10:52;118.78;;;55.58;;
46753;SDS011;32500;50.620;3.400;2023-11-21T11:13:18;117.45;;;55.55;;
46753;SDS011;32500;50.620;3.400;2023-11-21T11:15:47;118.53;;;55.75;;
46753;SDS011;32500;50.620;3.400;2023-11-21T11:18:14;118.13;;;55.70;;
46753;SDS011;32500;50.620;3.400;2023-11-21T11:20:42;120.88;;;55.00;;
46753;SDS011;32500;50.620;3.400;2023-11-21T11:23:30;117.30;;;54.97;;
46753;SDS011;32500;50.620;3.400;2023-11-21T11:26:31;117.72;;;54.67;;
46753;SDS011;32500;50.620;3.400;2023-11-21T11:31:55;120.80;;;55.60;;
46753;SDS011;32500;50.620;3.400;2023-11-21T11:34:41;121.07;;;55.92;;
46753;SDS011;32500;50.620;3.400;2023-11-21T11:37:15;121.07;;;55.45;;
46753;SDS011;32500;50.620;3.400;2023-11-21T11:39:41;119.85;;;55.47;;
46753;SDS011;32500;50.620;3.400;2023-11-21T11:42:10;121.97;;;55.33;;
46753;SDS011;32500;50.620;3.400;2023-11-21T11:47:19;119.70;;;55.13;;
46753;SDS011;32500;50.620;3.400;2023-11-21T11:52:41;119.37;;;54.73;;
46753;SDS011;32500;50.620;3.400;2023-11-21T11:55:12;124.90;;;55.17;;
46753;SDS011;32500;50.620;3.400;2023-11-21T11:57:40;118.68;;;55.05;;
46753;SDS011;32500;50.620;3.400;2023-11-21T12:00:10;118.60;;;55.13;;
46753;SDS011;32500;50.620;3.400;2023-11-21T12:02:41;120.07;;;55.00;;
46753;SDS011;32500;50.620;3.400;2023-11-21T12:05:10;122.93;;;55.70;;
46753;SDS011;32500;50.620;3.400;2023-11-21T12:10:19;118.75;;;55.78;;
46753;SDS011;32500;50.620;3.400;2023-11-21T12:12:50;122.07;;;55.83;;
46753;SDS011;32500;50.620;3.400;2023-11-21T12:15:23;119.85;;;55.28;;
46753;SDS011;32500;50.620;3.400;2023-11-21T12:17:50;122.70;;;56.35;;
46753;SDS011;32500;50.620;3.400;2023-11-21T12:22:48;119.53;;;56.28;;
46753;SDS011;32500;50.620;3.400;2023-11-21T12:25:18;121.65;;;55.65;;
46753;SDS011;32500;50.620;3.400;2023-11-21T12:27:51;118.97;;;55.00;;
46753;SDS011;32500;50.620;3.400;2023-11-21T12:30:18;119.68;;;54.80;;
46753;SDS011;32500;50.620;3.400;2023-11-21T12:32:50;117.00;;;54.95;;
46753;SDS011;32500;50.620;3.400;2023-11-21T12:35:17;118.67;;;55.30;;
46753;SDS011;32500;50.620;3.400;2023-11-21T12:37:48;117.80;;;55.57;;
46753;SDS011;32500;50.620;3.400;2023-11-21T12:40:14;119.22;;;55.50;;
46753;SDS011;32500;50.620;3.400;2023-11-21T12:42:41;118.25;;;55.42;;
46753;SDS011;32500;50.620;3.400;2023-11-21T12:45:07;119.35;;;55.90;;
46753;SDS011;32500;50.620;3.400;2023-11-21T12:47:48;119.00;;;55.85;;
46753;SDS011;32500;50.620;3.400;2023-11-21T12:50:20;117.70;;;55.38;;
46753;SDS011;32500;50.620;3.400;2023-11-21T12:52:48;117.72;;;55.80;;
46753;SDS011;32500;50.620;3.400;2023-11-21T12:55:16;117.82;;;55.60;;
46753;SDS011;32500;50.620;3.400;2023-11-21T12:57:45;118.00;;;55.35;;
46753;SDS011;32500;50.620;3.400;2023-11-21T13:00:15;118.43;;;55.53;;
46753;SDS011;32500;50.620;3.400;2023-11-21T13:02:52;118.15;;;55.53;;
46753;SDS011;32500;50.620;3.400;2023-11-21T13:05:25;116.97;;;55.17;;
46753;SDS011;32500;50.620;3.400;2023-11-21T13:07:56;118.45;;;55.15;;
46753;SDS011;32500;50.620;3.400;2023-11-21T13:10:25;120.15;;;55.05;;
46753;SDS011;32500;50.620;3.400;2023-11-21T13:12:54;118.07;;;55.38;;
46753;SDS011;32500;50.620;3.400;2023-11-21T13:15:22;117.80;;;55.25;;
46753;SDS011;32500;50.620;3.400;2023-11-21T13:17:49;119.47;;;54.67;;
46753;SDS011;32500;50.620;3.400;2023-11-21T13:20:16;117.05;;;55.03;;
46753;SDS011;32500;50.620;3.400;2023-11-21T13:22:46;118.28;;;55.38;;
46753;SDS011;32500;50.620;3.400;2023-11-21T13:25:16;116.82;;;54.70;;
46753;SDS011;32500;50.620;3.400;2023-11-21T13:27:43;119.15;;;55.13;;
46753;SDS011;32500;50.620;3.400;2023-11-21T13:30:10;118.20;;;54.83;;
46753;SDS011;32500;50.620;3.400;2023-11-21T13:32:47;116.70;;;54.78;;
46753;SDS011;32500;50.620;3.400;2023-11-21T13:35:16;118.10;;;54.92;;
46753;SDS011;32500;50.620;3.400;2023-11-21T13:37:55;117.57;;;54.70;;
46753;SDS011;32500;50.620;3.400;2023-11-21T13:40:25;117.88;;;54.70;;
46753;SDS011;32500;50.620;3.400;2023-11-21T13:42:55;116.70;;;54.83;;
46753;SDS011;32500;50.620;3.400;2023-11-21T13:45:24;118.25;;;54.65;;
46753;SDS011;32500;50.620;3.400;2023-11-21T13:47:51;119.70;;;54.80;;
46753;SDS011;32500;50.620;3.400;2023-11-21T13:50:19;117.55;;;54.60;;
46753;SDS011;32500;50.620;3.400;2023-11-21T13:52:49;118.88;;;55.30;;
46753;SDS011;32500;50.620;3.400;2023-11-21T13:55:19;120.40;;;54.70;;
46753;SDS011;32500;50.620;3.400;2023-11-21T13:57:46;119.25;;;54.95;;
46753;SDS011;32500;50.620;3.400;2023-11-21T14:00:16;117.50;;;55.63;;
46753;SDS011;32500;50.620;3.400;2023-11-21T14:03:01;119.82;;;55.67;;
46753;SDS011;32500;50.620;3.400;2023-11-21T14:05:27;120.53;;;55.75;;
46753;SDS011;32500;50.620;3.400;2023-11-21T14:07:57;120.78;;;55.50;;
46753;SDS011;32500;50.620;3.400;2023-11-21T14:10:29;121.28;;;55.28;;
46753;SDS011;32500;50.620;3.400;2023-11-21T14:13:05;122.60;;;55.45;;
46753;SDS011;32500;50.620;3.400;2023-11-21T14:15:31;124.05;;;55.25;;
46753;SDS011;32500;50.620;3.400;2023-11-21T14:18:02;120.75;;;55.53;;
46753;SDS011;32500;50.620;3.400;2023-11-21T14:20:32;119.53;;;56.17;;
46753;SDS011;32500;50.620;3.400;2023-11-21T14:22:58;119.43;;;55.42;;
46753;SDS011;32500;50.620;3.400;2023-11-21T14:25:24;123.53;;;57.63;;
46753;SDS011;32500;50.620;3.400;2023-11-21T14:27:49;152.65;;;78.72;;
46753;SDS011;32500;50.620;3.400;2023-11-21T14:30:15;175.13;;;99.25;;